createdAt,value
2024-05-09T00:01:30.935Z,100008.53
2024-05-09T00:04:01.565Z,100000.81
2024-05-09T00:06:32.145Z,100000.75
2024-05-09T00:09:02.733Z,100001.56
2024-05-09T00:11:33.624Z,99995.63
2024-05-09T00:14:07.025Z,99997.44
2024-05-09T00:16:37.635Z,100001.72
2024-05-09T00:19:08.249Z,100000.00
2024-05-09T00:21:39.227Z,100004.25
2024-05-09T00:24:10.177Z,99999.97
2024-05-09T00:26:41.192Z,100005.13
2024-05-09T00:29:14.518Z,99994.81
2024-05-09T00:31:45.271Z,99999.06
2024-05-09T00:34:16.196Z,99997.31
2024-05-09T00:36:46.899Z,99995.56
2024-05-09T00:39:17.539Z,99999.00
2024-05-09T00:41:48.038Z,99993.94
2024-05-09T00:44:21.478Z,99991.38
2024-05-09T00:46:55.091Z,99993.13
2024-05-09T00:49:28.259Z,99988.88
2024-05-09T00:52:00.920Z,99991.50
2024-05-09T00:54:32.094Z,99976.22
2024-05-09T00:57:04.227Z,99992.44
2024-05-09T00:59:37.837Z,99986.53
2024-05-09T01:02:09.890Z,99995.03
2024-05-09T01:04:40.660Z,100001.91
2024-05-09T01:07:11.922Z,99995.09
2024-05-09T01:09:42.787Z,99990.84
2024-05-09T01:12:13.616Z,99998.47
2024-05-09T01:14:46.939Z,100000.16
2024-05-09T01:17:17.946Z,100006.09
2024-05-09T01:19:49.944Z,100003.53
2024-05-09T01:22:20.554Z,100009.50
2024-05-09T01:24:53.766Z,100014.75
2024-05-09T01:27:25.572Z,100003.63
2024-05-09T01:29:56.176Z,100014.69
2024-05-09T01:32:27.391Z,100007.03
2024-05-09T01:34:58.716Z,100013.03
2024-05-09T01:37:29.445Z,100006.25
2024-05-09T01:40:03.535Z,100011.31
2024-05-09T01:42:34.570Z,99989.16
2024-05-09T01:45:05.576Z,100006.19
2024-05-09T01:47:36.866Z,100016.50
2024-05-09T01:50:10.727Z,100018.25
2024-05-09T01:52:41.759Z,100016.59
2024-05-09T01:55:15.007Z,100014.97
2024-05-09T01:57:45.671Z,100020.16
2024-05-09T02:00:25.879Z,100016.81
2024-05-09T02:03:01.977Z,100021.13
2024-05-09T02:05:33.033Z,100019.44
2024-05-09T02:08:03.789Z,100024.63
2024-05-09T02:10:37.137Z,100023.03
2024-05-09T02:13:09.702Z,100017.09
2024-05-09T02:15:40.229Z,100016.31
2024-05-09T02:18:11.987Z,100025.81
2024-05-09T02:20:44.122Z,100028.44
2024-05-09T02:23:15.350Z,100006.31
2024-05-09T02:25:48.832Z,100017.41
2024-05-09T02:28:19.542Z,100018.28
2024-05-09T02:30:50.153Z,100025.97
2024-05-09T02:33:21.665Z,100023.41
2024-05-09T02:35:53.311Z,100004.69
2024-05-09T02:38:21.342Z,100022.63
2024-05-09T02:40:54.639Z,100023.47
2024-05-09T02:43:22.654Z,100020.94
2024-05-09T02:45:53.084Z,100020.09
2024-05-09T02:48:21.277Z,100019.25
2024-05-09T02:50:52.332Z,100024.41
2024-05-09T02:53:20.250Z,100021.00
2024-05-09T02:55:53.737Z,100020.19
2024-05-09T02:58:21.633Z,100021.06
2024-05-09T03:00:52.195Z,100021.06
2024-05-09T03:03:20.904Z,100013.38
2024-05-09T03:05:51.628Z,100015.94
2024-05-09T03:08:19.699Z,100020.22
2024-05-09T03:10:50.366Z,100018.50
2024-05-09T03:13:21.099Z,100021.06
2024-05-09T03:15:52.748Z,100010.84
2024-05-09T03:18:20.784Z,100012.56
2024-05-09T03:20:51.346Z,100015.16
2024-05-09T03:23:19.581Z,100020.28
2024-05-09T03:25:50.408Z,99987.03
2024-05-09T03:28:21.114Z,100016.84
2024-05-09T03:30:51.784Z,100021.09
2024-05-09T03:33:20.782Z,100017.72
2024-05-09T03:35:51.795Z,100019.41
2024-05-09T03:38:22.739Z,100024.53
2024-05-09T03:40:54.090Z,100027.09
2024-05-09T03:43:27.426Z,99999.78
2024-05-09T03:45:57.243Z,100033.00
2024-05-09T03:48:28.540Z,100033.84
2024-05-09T03:50:56.477Z,100027.00
2024-05-09T03:53:27.166Z,100036.38
2024-05-09T03:55:55.127Z,100033.75
2024-05-09T03:58:28.310Z,100039.72
2024-05-09T04:00:56.253Z,100034.53
2024-05-09T04:03:26.963Z,100016.66
2024-05-09T04:05:55.315Z,100037.91
2024-05-09T04:08:26.265Z,100039.56
2024-05-09T04:10:54.343Z,100030.97
2024-05-09T04:13:27.629Z,100036.97
2024-05-09T04:15:55.487Z,100036.91
2024-05-09T04:18:26.078Z,100036.03
2024-05-09T04:20:54.148Z,100042.88
2024-05-09T04:23:24.719Z,100036.88
2024-05-09T04:25:52.661Z,100039.38
2024-05-09T04:28:24.184Z,100018.03
2024-05-09T04:30:54.780Z,100038.38
2024-05-09T04:33:25.790Z,100040.88
2024-05-09T04:35:54.395Z,100031.44
2024-05-09T04:38:25.204Z,100046.72
2024-05-09T04:40:53.262Z,100050.91
2024-05-09T04:43:23.865Z,100049.91
2024-05-09T04:45:54.478Z,100053.31
2024-05-09T04:48:25.780Z,100053.31
2024-05-09T04:50:53.851Z,100059.25
2024-05-09T04:53:24.557Z,100062.56
2024-05-09T04:55:53.419Z,100066.75
2024-05-09T04:58:23.975Z,100065.81
2024-05-09T05:00:54.684Z,100071.78
2024-05-09T05:03:25.475Z,100067.50
2024-05-09T05:05:53.554Z,100074.25
2024-05-09T05:08:24.160Z,100062.16
2024-05-09T05:10:52.185Z,100072.25
2024-05-09T05:13:24.159Z,100067.06
2024-05-09T05:15:57.694Z,100075.38
2024-05-09T05:18:30.016Z,100070.97
2024-05-09T05:20:58.521Z,100078.53
2024-05-09T05:23:29.319Z,100078.28
2024-05-09T05:25:57.367Z,100056.03
2024-05-09T05:28:28.452Z,100071.94
2024-05-09T05:30:58.946Z,100081.13
2024-05-09T05:33:29.599Z,100080.19
2024-05-09T05:35:57.593Z,100081.69
2024-05-09T05:38:28.917Z,100085.94
2024-05-09T05:40:57.014Z,100079.69
2024-05-09T05:43:27.701Z,100088.81
2024-05-09T05:45:55.478Z,100089.72
2024-05-09T05:48:28.699Z,100087.84
2024-05-09T05:50:57.153Z,100091.03
2024-05-09T05:53:30.096Z,100099.38
2024-05-09T05:55:58.386Z,100095.84
2024-05-09T05:58:28.893Z,100095.81
2024-05-09T06:00:56.804Z,100089.63
2024-05-09T06:03:30.724Z,100095.56
2024-05-09T06:06:02.964Z,100086.16
2024-05-09T06:08:33.703Z,100096.22
2024-05-09T06:11:01.851Z,100089.25
2024-05-09T06:13:32.498Z,100095.16
2024-05-09T06:16:01.049Z,100095.44
2024-05-09T06:18:34.357Z,100096.97
2024-05-09T06:21:02.436Z,100089.06
2024-05-09T06:23:33.044Z,100099.91
2024-05-09T06:26:00.910Z,100101.63
2024-05-09T06:28:31.529Z,100102.19
2024-05-09T06:31:01.688Z,100102.56
2024-05-09T06:33:34.968Z,100104.28
2024-05-09T06:36:02.992Z,100104.16
2024-05-09T06:38:33.789Z,100102.16
2024-05-09T06:41:01.907Z,100106.09
2024-05-09T06:43:32.404Z,100094.41
2024-05-09T06:46:00.281Z,100103.00
2024-05-09T06:48:30.869Z,100107.88
2024-05-09T06:51:01.554Z,100102.19
2024-05-09T06:53:32.933Z,100103.53
2024-05-09T06:56:01.380Z,100102.44
2024-05-09T06:58:31.908Z,100100.63
2024-05-09T07:00:59.862Z,100096.28
2024-05-09T07:03:30.679Z,100091.38
2024-05-09T07:06:01.458Z,100094.75
2024-05-09T07:08:32.181Z,100090.97
2024-05-09T07:11:00.975Z,100096.44
2024-05-09T07:13:31.538Z,100093.50
2024-05-09T07:15:59.412Z,100092.19
2024-05-09T07:18:30.237Z,100103.16
2024-05-09T07:21:00.928Z,100094.25
2024-05-09T07:23:31.934Z,100094.94
2024-05-09T07:26:00.015Z,100101.53
2024-05-09T07:28:30.607Z,100103.47
2024-05-09T07:30:58.744Z,100084.16
2024-05-09T07:33:29.261Z,100108.72
2024-05-09T07:35:57.643Z,100104.59
2024-05-09T07:38:31.007Z,100111.38
2024-05-09T07:40:59.141Z,100115.75
2024-05-09T07:43:29.852Z,100107.66
2024-05-09T07:46:00.926Z,100107.38
2024-05-09T07:53:58.309Z,100116.41
2024-05-09T07:56:31.855Z,100110.41
2024-05-09T07:58:59.949Z,100123.31
2024-05-09T08:01:30.600Z,100118.88
2024-05-09T08:03:58.756Z,100112.13
2024-05-09T08:06:29.679Z,100116.88
2024-05-09T08:09:05.182Z,100113.97
2024-05-09T08:11:39.875Z,100118.56
2024-05-09T08:14:08.554Z,100112.81
2024-05-09T08:16:39.103Z,100116.56
2024-05-09T08:19:07.108Z,100112.50
2024-05-09T08:21:37.677Z,100112.19
2024-05-09T08:24:08.338Z,100109.09
2024-05-09T08:26:39.291Z,100114.94
2024-05-09T08:29:07.189Z,100113.72
2024-05-09T08:31:40.371Z,100121.50
2024-05-09T08:34:08.519Z,100121.97
2024-05-09T08:36:41.231Z,100115.38
2024-05-09T08:39:11.835Z,100116.94
2024-05-09T08:41:46.227Z,100109.00
2024-05-09T08:44:14.510Z,100118.28
2024-05-09T08:46:49.357Z,100122.53
2024-05-09T08:49:17.333Z,100105.72
2024-05-09T08:51:48.162Z,100111.34
2024-05-09T08:54:20.215Z,100115.31
2024-05-09T08:56:53.367Z,100118.72
2024-05-09T08:59:28.118Z,100109.50
2024-05-09T09:01:59.091Z,100118.94
2024-05-09T09:04:28.915Z,100110.97
2024-05-09T09:07:02.310Z,100118.25
2024-05-09T09:09:43.747Z,100116.97
2024-05-09T09:12:15.647Z,100102.44
2024-05-09T09:14:43.416Z,100112.69
2024-05-09T09:17:17.427Z,100110.06
2024-05-09T09:19:45.534Z,100104.97
2024-05-09T09:22:16.143Z,100101.41
2024-05-09T09:24:46.801Z,100107.13
2024-05-09T09:27:17.441Z,100099.16
2024-05-09T09:29:45.331Z,100102.78
2024-05-09T09:32:15.972Z,100103.53
2024-05-09T09:34:44.950Z,100103.38
2024-05-09T09:37:15.583Z,100112.13
2024-05-09T09:39:49.130Z,100101.16
2024-05-09T09:42:25.488Z,100105.25
2024-05-09T09:45:02.204Z,100081.63
2024-05-09T09:47:41.141Z,100099.88
2024-05-09T09:50:14.419Z,100094.84
2024-05-09T09:52:48.918Z,100104.00
2024-05-09T09:55:20.319Z,100100.19
2024-05-09T09:57:52.329Z,100093.31
2024-05-09T10:00:27.435Z,100093.66
2024-05-09T10:03:03.351Z,100097.38
2024-05-09T10:05:34.149Z,100095.41
2024-05-09T10:08:08.503Z,100094.28
2024-05-09T10:10:39.344Z,100093.91
2024-05-09T10:13:10.833Z,100091.31
2024-05-09T10:15:46.200Z,100090.00
2024-05-09T10:18:17.911Z,100081.19
2024-05-09T10:20:46.860Z,100086.38
2024-05-09T10:23:28.983Z,100094.72
2024-05-09T10:26:03.238Z,100089.09
2024-05-09T10:28:35.564Z,100093.44
2024-05-09T10:31:08.132Z,100090.81
2024-05-09T10:33:42.991Z,100094.53
2024-05-09T10:36:14.297Z,100093.47
2024-05-09T10:38:46.278Z,100093.88
2024-05-09T10:41:17.315Z,100089.66
2024-05-09T10:43:48.352Z,100088.75
2024-05-09T10:46:16.812Z,100088.25
2024-05-09T10:48:48.713Z,100086.84
2024-05-09T10:51:19.398Z,100077.56
2024-05-09T10:53:53.947Z,100077.81
2024-05-09T10:56:24.436Z,100079.22
2024-05-09T10:58:55.198Z,100070.69
2024-05-09T11:01:23.189Z,100067.81
2024-05-09T11:03:54.007Z,100067.06
2024-05-09T11:06:22.040Z,100066.16
2024-05-09T11:08:53.672Z,100061.75
2024-05-09T11:11:24.430Z,100064.41
2024-05-09T11:13:55.019Z,100055.06
2024-05-09T11:16:22.966Z,100044.13
2024-05-09T11:18:58.545Z,100046.69
2024-05-09T11:21:27.215Z,100054.38
2024-05-09T11:23:58.252Z,100050.34
2024-05-09T11:26:29.771Z,100042.56
2024-05-09T11:29:00.397Z,100048.63
2024-05-09T11:31:28.378Z,100045.84
2024-05-09T11:33:58.880Z,100048.09
2024-05-09T11:36:26.750Z,100048.56
2024-05-09T11:38:57.289Z,100040.78
2024-05-09T11:41:31.243Z,100039.38
2024-05-09T11:44:02.183Z,100045.94
2024-05-09T11:46:30.138Z,100034.50
2024-05-09T11:49:01.104Z,100027.66
2024-05-09T11:51:29.450Z,100030.53
2024-05-09T11:53:59.985Z,100027.66
2024-05-09T11:56:30.613Z,100024.16
2024-05-09T11:59:01.250Z,100028.13
2024-05-09T12:01:29.258Z,100025.44
2024-05-09T12:04:00.272Z,100029.19
2024-05-09T12:06:29.638Z,100023.28
2024-05-09T12:09:00.192Z,100025.72
2024-05-09T12:11:30.994Z,100016.03
2024-05-09T12:14:01.503Z,100014.78
2024-05-09T12:16:29.510Z,99999.44
2024-05-09T12:19:00.236Z,100011.19
2024-05-09T12:21:28.500Z,100004.63
2024-05-09T12:23:59.048Z,100002.47
2024-05-09T12:26:29.720Z,100002.75
2024-05-09T12:29:00.249Z,100004.25
2024-05-09T12:31:28.471Z,99992.78
2024-05-09T12:34:00.683Z,100001.63
2024-05-09T12:36:29.016Z,99998.47
2024-05-09T12:38:59.664Z,99995.38
2024-05-09T12:41:30.640Z,99995.66
2024-05-09T12:44:01.181Z,99990.66
2024-05-09T12:46:29.492Z,99978.34
2024-05-09T12:49:00.495Z,99994.94
2024-05-09T12:51:31.238Z,99983.16
2024-05-09T12:54:01.946Z,99981.28
2024-05-09T12:56:33.773Z,99972.38
2024-05-09T12:59:04.495Z,99973.66
2024-05-09T13:01:32.461Z,99977.44
2024-05-09T13:04:03.118Z,99962.41
2024-05-09T13:06:31.946Z,99965.44
2024-05-09T13:09:02.527Z,99959.94
2024-05-09T13:11:33.078Z,99961.34
2024-05-09T13:14:03.847Z,99960.34
2024-05-09T13:16:31.852Z,99952.69
2024-05-09T13:19:02.697Z,99954.19
2024-05-09T13:21:30.827Z,99955.41
2024-05-09T13:24:01.285Z,99946.84
2024-05-09T13:26:29.209Z,99946.72
2024-05-09T13:29:02.318Z,99942.03
2024-05-09T13:31:30.255Z,99944.88
2024-05-09T13:34:00.826Z,99941.41
2024-05-09T13:36:29.546Z,99930.50
2024-05-09T13:39:00.054Z,99932.69
2024-05-09T13:41:27.945Z,99942.31
2024-05-09T13:43:59.172Z,99932.47
2024-05-09T13:46:29.855Z,99922.66
2024-05-09T13:49:01.233Z,99924.97
2024-05-09T13:51:29.222Z,99928.28
2024-05-09T13:53:59.742Z,99932.09
2024-05-09T13:56:27.638Z,99929.22
2024-05-09T13:58:58.063Z,99921.28
2024-05-09T14:01:28.768Z,99922.00
2024-05-09T14:03:59.671Z,99922.81
2024-05-09T14:06:27.671Z,99917.97
2024-05-09T14:08:58.224Z,99922.66
2024-05-09T14:11:26.174Z,99922.03
2024-05-09T14:13:56.698Z,99915.31
2024-05-09T14:16:24.677Z,99906.28
2024-05-09T14:18:58.018Z,99907.59
2024-05-09T14:21:28.695Z,99914.06
2024-05-09T14:23:56.709Z,99919.47
2024-05-09T14:26:27.547Z,99913.88
2024-05-09T14:28:55.480Z,99902.34
2024-05-09T14:31:26.038Z,99911.19
2024-05-09T14:33:56.788Z,99908.69
2024-05-09T14:36:27.337Z,99884.56
2024-05-09T14:38:55.225Z,99911.44
2024-05-09T14:41:25.738Z,99909.97
2024-05-09T14:43:53.566Z,99903.59
2024-05-09T14:46:24.235Z,99898.88
2024-05-09T14:48:55.576Z,99900.56
2024-05-09T14:51:26.368Z,99892.13
2024-05-09T14:53:56.911Z,99891.69
2024-05-09T14:56:24.820Z,99885.41
2024-05-09T14:58:55.469Z,99893.81
2024-05-09T15:01:24.393Z,99872.50
2024-05-09T15:03:56.977Z,99884.47
2024-05-09T15:06:32.562Z,99879.84
2024-05-09T15:09:04.369Z,99881.94
2024-05-09T15:11:32.358Z,99877.56
2024-05-09T15:14:02.983Z,99869.75
2024-05-09T15:16:31.495Z,99874.88
2024-05-09T15:19:02.520Z,99876.13
2024-05-09T15:21:33.196Z,99869.88
2024-05-09T15:24:03.795Z,99867.25
2024-05-09T15:26:31.897Z,99865.84
2024-05-09T15:29:02.835Z,99860.44
2024-05-09T15:31:30.723Z,99863.81
2024-05-09T15:34:01.377Z,99865.25
2024-05-09T15:36:29.488Z,99853.88
2024-05-09T15:39:02.760Z,99859.44
2024-05-09T15:41:30.826Z,99857.19
2024-05-09T15:44:01.256Z,99857.69
2024-05-09T15:46:29.226Z,99843.84
2024-05-09T15:48:59.994Z,99848.91
2024-05-09T15:51:28.774Z,99840.94
2024-05-09T15:53:59.350Z,99842.44
2024-05-09T15:56:30.141Z,99842.81
2024-05-09T15:59:00.993Z,99843.09
2024-05-09T16:01:29.079Z,99842.06
2024-05-09T16:04:00.074Z,99833.38
2024-05-09T16:06:28.387Z,99841.28
2024-05-09T16:08:59.218Z,99826.88
2024-05-09T16:11:29.926Z,99834.78
2024-05-09T16:14:01.766Z,99832.16
2024-05-09T16:16:29.948Z,99829.28
2024-05-09T16:19:00.670Z,99848.13
2024-05-09T16:21:28.548Z,99837.19
2024-05-09T16:23:58.955Z,99841.25
2024-05-09T16:26:29.714Z,99838.88
2024-05-09T16:29:00.398Z,99841.22
2024-05-09T16:31:28.359Z,99829.47
2024-05-09T16:33:59.057Z,99847.59
2024-05-09T16:36:26.973Z,99851.41
2024-05-09T16:38:57.451Z,99843.25
2024-05-09T16:41:25.519Z,99843.53
2024-05-09T16:43:58.779Z,99845.50
2024-05-09T16:46:28.391Z,99846.56
2024-05-09T16:48:59.145Z,99851.00
2024-05-09T16:51:28.115Z,99836.56
2024-05-09T16:53:59.191Z,99848.88
2024-05-09T16:56:27.935Z,99846.75
2024-05-09T16:59:01.278Z,99845.63
2024-05-09T17:01:31.010Z,99839.13
2024-05-09T17:04:02.584Z,99851.34
2024-05-09T17:06:33.147Z,99839.78
2024-05-09T17:09:11.379Z,99840.16
2024-05-09T17:11:40.926Z,99856.59
2024-05-09T17:14:15.744Z,99852.91
2024-05-09T17:16:47.791Z,99854.41
2024-05-09T17:19:17.703Z,99860.94
2024-05-09T17:21:49.851Z,99856.38
2024-05-09T17:24:18.892Z,99858.66
2024-05-09T17:26:50.341Z,99864.22
2024-05-09T17:29:21.895Z,99870.66
2024-05-09T17:31:52.408Z,99863.50
2024-05-09T17:34:20.486Z,99876.00
2024-05-09T17:36:51.157Z,99877.94
2024-05-09T17:39:19.673Z,99888.75
2024-05-09T17:41:50.225Z,99882.25
2024-05-09T17:44:20.780Z,99889.53
2024-05-09T17:46:51.405Z,99888.06
2024-05-09T17:49:19.729Z,99888.50
2024-05-09T17:51:56.875Z,99894.06
2024-05-09T17:54:24.987Z,99891.91
2024-05-09T17:56:55.527Z,99894.63
2024-05-09T17:59:26.314Z,99897.34
2024-05-09T18:01:56.885Z,99902.59
2024-05-09T18:04:24.920Z,99896.94
2024-05-09T18:06:55.924Z,99898.00
2024-05-09T18:09:23.771Z,99909.38
2024-05-09T18:11:54.176Z,99903.59
2024-05-09T18:14:22.312Z,99906.38
2024-05-09T18:16:56.123Z,99912.66
2024-05-09T18:19:24.227Z,99923.88
2024-05-09T18:21:54.797Z,99922.28
2024-05-09T18:24:22.766Z,99919.75
2024-05-09T18:26:53.978Z,99901.25
2024-05-09T18:29:22.335Z,99924.25
2024-05-09T18:31:56.128Z,99926.97
2024-05-09T18:34:24.073Z,99934.81
2024-05-09T18:36:55.147Z,99932.44
2024-05-09T18:39:23.151Z,99937.72
2024-05-09T18:41:53.882Z,99948.31
2024-05-09T18:44:21.875Z,99950.06
2024-05-09T18:46:52.374Z,99949.34
2024-05-09T18:49:23.207Z,99965.00
2024-05-09T18:51:53.816Z,99965.25
2024-05-09T18:54:21.573Z,99967.22
2024-05-09T18:56:52.042Z,99971.59
2024-05-09T18:59:20.151Z,99970.81
2024-05-09T19:01:50.778Z,99982.16
2024-05-09T19:04:19.472Z,99971.44
2024-05-09T19:06:53.123Z,99992.00
2024-05-09T19:09:21.014Z,99999.78
2024-05-09T19:11:51.521Z,99995.63
2024-05-09T19:14:19.653Z,99999.25
2024-05-09T19:16:50.451Z,99992.41
2024-05-09T19:19:18.555Z,100005.47
2024-05-09T19:21:49.218Z,100001.28
2024-05-09T19:24:19.903Z,100004.00
2024-05-09T19:26:50.539Z,100007.69
2024-05-09T19:29:18.308Z,100006.88
2024-05-09T19:31:48.728Z,100012.16
2024-05-09T19:34:17.160Z,100020.94
2024-05-09T19:36:47.736Z,100022.78
2024-05-09T19:39:15.690Z,100032.31
2024-05-09T19:41:48.853Z,100031.56
2024-05-09T19:44:16.717Z,100037.66
2024-05-09T19:46:47.840Z,100038.50
2024-05-09T19:49:16.987Z,100036.00
2024-05-09T19:51:47.720Z,100042.09
2024-05-09T19:54:15.734Z,100050.75
2024-05-09T19:56:48.958Z,100049.06
2024-05-09T19:59:19.514Z,100042.25
2024-05-09T20:01:48.486Z,100037.31
2024-05-09T20:04:19.582Z,100039.91
2024-05-09T20:06:47.794Z,100036.53
2024-05-09T20:09:18.256Z,100040.97
2024-05-09T20:11:48.984Z,100041.88
2024-05-09T20:14:19.567Z,100037.66
2024-05-09T20:16:47.595Z,100038.59
2024-05-09T20:19:18.250Z,100039.47
2024-05-09T20:21:46.548Z,100044.69
2024-05-09T20:24:17.232Z,100042.94
2024-05-09T20:26:47.786Z,100048.16
2024-05-09T20:29:18.187Z,100043.94
2024-05-09T20:31:46.173Z,100045.69
2024-05-09T20:34:16.655Z,100049.13
2024-05-09T20:36:44.570Z,100042.41
2024-05-09T20:39:15.035Z,100028.94
2024-05-09T20:41:44.025Z,100039.13
2024-05-09T20:44:17.102Z,100039.22
2024-05-09T20:46:45.804Z,100047.03
2024-05-09T20:49:17.217Z,100048.00
2024-05-09T20:51:45.486Z,100052.41
2024-05-09T20:54:16.137Z,100055.88
2024-05-09T20:56:44.020Z,100056.06
2024-05-09T20:59:17.689Z,100048.47
2024-05-09T21:01:49.291Z,100050.22
2024-05-09T21:04:20.439Z,100052.88
2024-05-09T21:06:48.408Z,100061.56
2024-05-09T21:09:18.843Z,100052.25
2024-05-09T21:11:46.871Z,100066.91
2024-05-09T21:14:20.138Z,100061.84
2024-05-09T21:16:48.402Z,100061.09
2024-05-09T21:19:19.093Z,100063.81
2024-05-09T21:21:47.994Z,100060.63
2024-05-09T21:24:18.945Z,100065.94
2024-05-09T21:26:46.773Z,100073.06
2024-05-09T21:29:20.070Z,100071.50
2024-05-09T21:31:48.024Z,100080.16
2024-05-09T21:34:18.616Z,100081.09
2024-05-09T21:36:46.619Z,100079.53
2024-05-09T21:39:17.065Z,100078.72
2024-05-09T21:41:44.976Z,100075.44
2024-05-09T21:44:15.454Z,100086.69
2024-05-09T21:46:46.038Z,100085.88
2024-05-09T21:49:17.521Z,100082.47
2024-05-09T21:51:45.464Z,100087.63
2024-05-09T21:54:15.876Z,100084.16
2024-05-09T21:56:43.757Z,100091.03
2024-05-09T21:59:14.155Z,100087.56
2024-05-09T22:01:42.109Z,100085.81
2024-05-09T22:04:15.312Z,100098.63
2024-05-09T22:06:43.218Z,100094.28
2024-05-09T22:09:13.702Z,100096.00
2024-05-09T22:11:42.158Z,100102.81
2024-05-09T22:14:12.625Z,100103.66
2024-05-09T22:16:40.912Z,100095.91
2024-05-09T22:19:14.747Z,100105.41
2024-05-09T22:21:42.633Z,100095.16
2024-05-09T22:24:13.418Z,100098.66
2024-05-09T22:26:41.250Z,100102.09
2024-05-09T22:29:11.652Z,100103.81
2024-05-09T22:31:39.555Z,100101.34
2024-05-09T22:34:10.092Z,100107.38
2024-05-09T22:36:41.268Z,100117.72
2024-05-09T22:39:11.849Z,100116.03
2024-05-09T22:41:40.535Z,100114.38
2024-05-09T22:44:10.904Z,100107.59
2024-05-09T22:46:39.518Z,100113.72
2024-05-09T22:49:10.175Z,100111.19
2024-05-09T22:51:40.850Z,100109.47
2024-05-09T22:54:11.466Z,100117.25
2024-05-09T22:56:39.880Z,100112.16
2024-05-09T22:59:10.302Z,100112.16
2024-05-09T23:01:38.239Z,100112.16
2024-05-09T23:04:08.961Z,100121.66
2024-05-09T23:06:43.738Z,100116.50
2024-05-09T23:09:14.498Z,100108.81
2024-05-09T23:11:42.486Z,100119.13
2024-05-09T23:14:13.350Z,100120.88
2024-05-09T23:16:42.644Z,100121.75
2024-05-09T23:19:13.202Z,100115.84
2024-05-09T23:21:43.829Z,100115.91
2024-05-09T23:24:14.692Z,100118.44
2024-05-09T23:26:43.383Z,100117.59
2024-05-09T23:29:13.936Z,100117.72
2024-05-09T23:31:41.872Z,100121.94
2024-05-09T23:34:12.497Z,100125.34
2024-05-09T23:36:40.488Z,100119.41
2024-05-09T23:39:13.703Z,100119.41
2024-05-09T23:41:41.867Z,100121.13
2024-05-09T23:44:12.315Z,100121.06
2024-05-09T23:46:43.343Z,100118.53
2024-05-09T23:49:11.501Z,100116.00
2024-05-09T23:51:42.047Z,100117.69
2024-05-09T23:54:12.796Z,100106.69
2024-05-09T23:56:43.331Z,100094.03
2024-05-09T23:59:11.174Z,100117.94
